This is the latest recevied weather packets stored in our database for station/object C31FR-13. If no packets are shown the sender has not sent any weather packets the latest 10 day(s).
| Time | Temp. | Humidity | Pressure | Rain* | Wind** | Luminosity | Snow |
|---|---|---|---|---|---|---|---|
| 1777936563 | 10° C | 88% | 1013.1 hPa | - | - | - | - |
| 1777936263 | 10.56° C | 85% | 1013 hPa | - | - | - | - |
| 1777935963 | 10.56° C | 85% | 1013 hPa | - | - | - | - |
| 1777935662 | 10.56° C | 86% | 1013 hPa | - | - | - | - |
| 1777935362 | 10.56° C | 86% | 1013 hPa | - | - | - | - |
| 1777935062 | 10.56° C | 85% | 1013 hPa | - | - | - | - |
| 1777934764 | 10° C | 87% | 1013 hPa | - | - | - | - |
| 1777934462 | 10.56° C | 83% | 1012.9 hPa | - | - | - | - |
| 1777934163 | 9.44° C | 86% | 1012.8 hPa | - | - | - | - |
| 1777933563 | 10.56° C | 83% | 1012.6 hPa | - | - | - | - |
| 1777933262 | 10.56° C | 83% | 1012.7 hPa | - | - | - | - |
| 1777932662 | 10.56° C | 80% | 1012.7 hPa | - | - | - | - |
| 1777932362 | 10.56° C | 78% | 1012.7 hPa | - | - | - | - |
| 1777932062 | 10.56° C | 79% | 1012.7 hPa | - | - | - | - |
| 1777931762 | 10° C | 85% | 1012.6 hPa | - | - | - | - |
| 1777931463 | 10.56° C | 85% | 1012.5 hPa | - | - | - | - |
| 1777931162 | 10.56° C | 84% | 1012.5 hPa | - | - | - | - |
| 1777930863 | 11.11° C | 81% | 1012.5 hPa | - | - | - | - |
| 1777930563 | 11.11° C | 83% | 1012.6 hPa | - | - | - | - |
| 1777930262 | 10.56° C | 84% | 1012.5 hPa | - | - | - | - |
| 1777929963 | 11.11° C | 82% | 1012.5 hPa | - | - | - | - |
| 1777929664 | 10.56° C | 84% | 1012.6 hPa | - | - | - | - |
| 1777929363 | 10.56° C | 85% | 1012.6 hPa | - | - | - | - |
| 1777929063 | 10.56° C | 83% | 1012.5 hPa | - | - | - | - |
| 1777928763 | 10.56° C | 86% | 1012.5 hPa | - | - | - | - |
* Rain since midnight (hover to see other rain measurements)
** Current wind speed in m/s (hover to see current wind gust speed)